sensor_id;sensor_type;location;lat;lon;timestamp;P1;durP1;ratioP1;P2;durP2;ratioP2
17345;SDS011;8790;53.590;10.002;2024-03-17T00:01:16;11.30;;;2.60;;
17345;SDS011;8790;53.590;10.002;2024-03-17T00:03:48;13.60;;;2.37;;
17345;SDS011;8790;53.590;10.002;2024-03-17T00:06:18;11.17;;;2.60;;
17345;SDS011;8790;53.590;10.002;2024-03-17T00:08:50;11.53;;;2.30;;
17345;SDS011;8790;53.590;10.002;2024-03-17T00:11:22;9.43;;;2.17;;
17345;SDS011;8790;53.590;10.002;2024-03-17T00:13:54;13.83;;;2.60;;
17345;SDS011;8790;53.590;10.002;2024-03-17T00:16:24;15.40;;;2.30;;
17345;SDS011;8790;53.590;10.002;2024-03-17T00:18:56;14.33;;;2.27;;
17345;SDS011;8790;53.590;10.002;2024-03-17T00:21:27;10.13;;;2.53;;
17345;SDS011;8790;53.590;10.002;2024-03-17T00:23:58;7.87;;;2.37;;
17345;SDS011;8790;53.590;10.002;2024-03-17T00:26:31;10.20;;;2.40;;
17345;SDS011;8790;53.590;10.002;2024-03-17T00:29:01;9.13;;;2.07;;
17345;SDS011;8790;53.590;10.002;2024-03-17T00:31:33;9.30;;;2.40;;
17345;SDS011;8790;53.590;10.002;2024-03-17T00:34:04;9.90;;;2.30;;
17345;SDS011;8790;53.590;10.002;2024-03-17T00:36:35;13.87;;;2.40;;
17345;SDS011;8790;53.590;10.002;2024-03-17T00:39:07;7.97;;;2.70;;
17345;SDS011;8790;53.590;10.002;2024-03-17T00:41:40;10.37;;;2.40;;
17345;SDS011;8790;53.590;10.002;2024-03-17T00:44:10;13.27;;;2.27;;
17345;SDS011;8790;53.590;10.002;2024-03-17T00:46:42;8.10;;;2.03;;
17345;SDS011;8790;53.590;10.002;2024-03-17T00:49:12;10.00;;;1.97;;
17345;SDS011;8790;53.590;10.002;2024-03-17T00:51:44;11.50;;;1.97;;
17345;SDS011;8790;53.590;10.002;2024-03-17T00:54:15;14.40;;;2.60;;
17345;SDS011;8790;53.590;10.002;2024-03-17T00:56:49;9.67;;;2.50;;
17345;SDS011;8790;53.590;10.002;2024-03-17T00:59:19;10.50;;;2.13;;
17345;SDS011;8790;53.590;10.002;2024-03-17T01:01:51;8.10;;;2.17;;
17345;SDS011;8790;53.590;10.002;2024-03-17T01:04:21;9.80;;;1.97;;
17345;SDS011;8790;53.590;10.002;2024-03-17T01:06:53;9.13;;;2.10;;
17345;SDS011;8790;53.590;10.002;2024-03-17T01:09:23;8.13;;;2.13;;
17345;SDS011;8790;53.590;10.002;2024-03-17T01:11:56;12.00;;;1.90;;
17345;SDS011;8790;53.590;10.002;2024-03-17T01:14:26;9.97;;;1.83;;
17345;SDS011;8790;53.590;10.002;2024-03-17T01:16:59;6.70;;;1.70;;
17345;SDS011;8790;53.590;10.002;2024-03-17T01:19:30;12.07;;;2.17;;
17345;SDS011;8790;53.590;10.002;2024-03-17T01:22:02;8.50;;;1.87;;
17345;SDS011;8790;53.590;10.002;2024-03-17T01:24:33;13.03;;;1.87;;
17345;SDS011;8790;53.590;10.002;2024-03-17T01:27:06;12.10;;;2.10;;
17345;SDS011;8790;53.590;10.002;2024-03-17T01:29:36;12.77;;;2.30;;
17345;SDS011;8790;53.590;10.002;2024-03-17T01:32:08;7.67;;;1.97;;
17345;SDS011;8790;53.590;10.002;2024-03-17T01:34:38;9.30;;;1.93;;
17345;SDS011;8790;53.590;10.002;2024-03-17T01:37:10;15.67;;;2.40;;
17345;SDS011;8790;53.590;10.002;2024-03-17T01:39:40;8.43;;;1.90;;
17345;SDS011;8790;53.590;10.002;2024-03-17T01:42:13;8.67;;;1.83;;
17345;SDS011;8790;53.590;10.002;2024-03-17T01:44:44;7.53;;;1.90;;
17345;SDS011;8790;53.590;10.002;2024-03-17T01:47:15;10.20;;;1.80;;
17345;SDS011;8790;53.590;10.002;2024-03-17T01:49:46;14.70;;;2.40;;
17345;SDS011;8790;53.590;10.002;2024-03-17T01:52:19;10.63;;;2.27;;
17345;SDS011;8790;53.590;10.002;2024-03-17T01:54:51;11.50;;;2.13;;
17345;SDS011;8790;53.590;10.002;2024-03-17T01:57:24;9.13;;;1.87;;
17345;SDS011;8790;53.590;10.002;2024-03-17T01:59:54;10.13;;;2.20;;
17345;SDS011;8790;53.590;10.002;2024-03-17T02:02:26;10.20;;;2.03;;
17345;SDS011;8790;53.590;10.002;2024-03-17T02:04:57;8.17;;;1.97;;
17345;SDS011;8790;53.590;10.002;2024-03-17T02:07:29;11.13;;;2.10;;
17345;SDS011;8790;53.590;10.002;2024-03-17T02:10:00;8.43;;;1.57;;
17345;SDS011;8790;53.590;10.002;2024-03-17T02:12:35;9.23;;;1.83;;
17345;SDS011;8790;53.590;10.002;2024-03-17T02:15:06;13.40;;;1.93;;
17345;SDS011;8790;53.590;10.002;2024-03-17T02:17:38;12.07;;;1.87;;
17345;SDS011;8790;53.590;10.002;2024-03-17T02:20:09;10.50;;;1.90;;
17345;SDS011;8790;53.590;10.002;2024-03-17T02:22:42;12.37;;;2.80;;
17345;SDS011;8790;53.590;10.002;2024-03-17T02:25:13;10.60;;;1.80;;
17345;SDS011;8790;53.590;10.002;2024-03-17T02:27:44;5.07;;;1.53;;
17345;SDS011;8790;53.590;10.002;2024-03-17T02:30:15;12.40;;;2.17;;
17345;SDS011;8790;53.590;10.002;2024-03-17T02:32:51;7.63;;;2.17;;
17345;SDS011;8790;53.590;10.002;2024-03-17T02:35:22;8.40;;;2.27;;
17345;SDS011;8790;53.590;10.002;2024-03-17T02:37:54;10.77;;;1.90;;
17345;SDS011;8790;53.590;10.002;2024-03-17T02:40:25;14.47;;;2.67;;
17345;SDS011;8790;53.590;10.002;2024-03-17T02:42:56;7.27;;;1.90;;
17345;SDS011;8790;53.590;10.002;2024-03-17T02:45:28;7.80;;;1.97;;
17345;SDS011;8790;53.590;10.002;2024-03-17T02:47:59;11.20;;;2.20;;
17345;SDS011;8790;53.590;10.002;2024-03-17T02:50:31;8.60;;;1.87;;
17345;SDS011;8790;53.590;10.002;2024-03-17T02:53:04;11.07;;;2.50;;
17345;SDS011;8790;53.590;10.002;2024-03-17T02:55:35;6.47;;;1.70;;
17345;SDS011;8790;53.590;10.002;2024-03-17T02:58:07;13.90;;;2.13;;
17345;SDS011;8790;53.590;10.002;2024-03-17T03:00:38;9.40;;;2.30;;
17345;SDS011;8790;53.590;10.002;2024-03-17T03:03:10;11.87;;;2.10;;
17345;SDS011;8790;53.590;10.002;2024-03-17T03:05:41;11.60;;;2.60;;
17345;SDS011;8790;53.590;10.002;2024-03-17T03:08:14;14.57;;;2.30;;
17345;SDS011;8790;53.590;10.002;2024-03-17T03:10:46;11.83;;;1.90;;
17345;SDS011;8790;53.590;10.002;2024-03-17T03:13:17;13.47;;;2.57;;
17345;SDS011;8790;53.590;10.002;2024-03-17T03:15:49;10.07;;;1.77;;
17345;SDS011;8790;53.590;10.002;2024-03-17T03:18:21;10.30;;;2.10;;
17345;SDS011;8790;53.590;10.002;2024-03-17T03:20:52;11.03;;;2.03;;
17345;SDS011;8790;53.590;10.002;2024-03-17T03:23:25;6.03;;;1.93;;
17345;SDS011;8790;53.590;10.002;2024-03-17T03:25:57;11.87;;;2.53;;
17345;SDS011;8790;53.590;10.002;2024-03-17T03:28:30;12.43;;;2.77;;
17345;SDS011;8790;53.590;10.002;2024-03-17T03:31:02;10.07;;;2.40;;
17345;SDS011;8790;53.590;10.002;2024-03-17T03:33:33;12.20;;;2.03;;
17345;SDS011;8790;53.590;10.002;2024-03-17T03:36:08;9.37;;;1.90;;
17345;SDS011;8790;53.590;10.002;2024-03-17T03:38:42;9.53;;;1.97;;
17345;SDS011;8790;53.590;10.002;2024-03-17T03:41:14;12.17;;;2.53;;
17345;SDS011;8790;53.590;10.002;2024-03-17T03:43:46;8.00;;;2.10;;
17345;SDS011;8790;53.590;10.002;2024-03-17T03:46:18;6.23;;;2.03;;
17345;SDS011;8790;53.590;10.002;2024-03-17T03:48:49;10.83;;;2.40;;
17345;SDS011;8790;53.590;10.002;2024-03-17T03:51:21;8.07;;;2.30;;
17345;SDS011;8790;53.590;10.002;2024-03-17T03:53:53;7.27;;;2.10;;
17345;SDS011;8790;53.590;10.002;2024-03-17T03:56:24;10.43;;;2.37;;
17345;SDS011;8790;53.590;10.002;2024-03-17T03:58:56;7.33;;;1.87;;
17345;SDS011;8790;53.590;10.002;2024-03-17T04:01:27;11.43;;;2.33;;
17345;SDS011;8790;53.590;10.002;2024-03-17T04:03:59;9.50;;;2.43;;
17345;SDS011;8790;53.590;10.002;2024-03-17T04:06:31;13.03;;;2.40;;
17345;SDS011;8790;53.590;10.002;2024-03-17T04:09:03;9.53;;;2.00;;
17345;SDS011;8790;53.590;10.002;2024-03-17T04:11:35;9.17;;;2.17;;
17345;SDS011;8790;53.590;10.002;2024-03-17T04:14:07;12.43;;;3.10;;
17345;SDS011;8790;53.590;10.002;2024-03-17T04:16:38;12.73;;;2.50;;
17345;SDS011;8790;53.590;10.002;2024-03-17T04:19:10;12.33;;;2.50;;
17345;SDS011;8790;53.590;10.002;2024-03-17T04:21:44;11.40;;;2.67;;
17345;SDS011;8790;53.590;10.002;2024-03-17T04:24:17;8.03;;;2.40;;
17345;SDS011;8790;53.590;10.002;2024-03-17T04:26:49;10.07;;;2.77;;
17345;SDS011;8790;53.590;10.002;2024-03-17T04:29:20;7.83;;;2.23;;
17345;SDS011;8790;53.590;10.002;2024-03-17T04:31:52;9.63;;;2.20;;
17345;SDS011;8790;53.590;10.002;2024-03-17T04:34:23;9.60;;;2.27;;
17345;SDS011;8790;53.590;10.002;2024-03-17T04:36:56;7.50;;;2.10;;
17345;SDS011;8790;53.590;10.002;2024-03-17T04:39:29;9.47;;;1.80;;
17345;SDS011;8790;53.590;10.002;2024-03-17T04:42:01;6.50;;;2.20;;
17345;SDS011;8790;53.590;10.002;2024-03-17T04:44:34;7.57;;;2.20;;
17345;SDS011;8790;53.590;10.002;2024-03-17T04:47:05;10.00;;;2.33;;
17345;SDS011;8790;53.590;10.002;2024-03-17T04:49:38;9.17;;;2.27;;
17345;SDS011;8790;53.590;10.002;2024-03-17T04:52:10;11.57;;;2.70;;
17345;SDS011;8790;53.590;10.002;2024-03-17T04:54:44;5.97;;;2.23;;
17345;SDS011;8790;53.590;10.002;2024-03-17T04:57:15;10.50;;;3.10;;
17345;SDS011;8790;53.590;10.002;2024-03-17T04:59:47;9.17;;;2.40;;
17345;SDS011;8790;53.590;10.002;2024-03-17T05:02:18;11.93;;;2.80;;
17345;SDS011;8790;53.590;10.002;2024-03-17T05:04:50;12.73;;;2.67;;
17345;SDS011;8790;53.590;10.002;2024-03-17T05:07:21;11.83;;;2.60;;
17345;SDS011;8790;53.590;10.002;2024-03-17T05:09:54;8.70;;;2.70;;
17345;SDS011;8790;53.590;10.002;2024-03-17T05:12:25;6.87;;;2.60;;
17345;SDS011;8790;53.590;10.002;2024-03-17T05:14:57;9.00;;;2.63;;
17345;SDS011;8790;53.590;10.002;2024-03-17T05:17:28;12.90;;;2.57;;
17345;SDS011;8790;53.590;10.002;2024-03-17T05:20:00;11.13;;;2.90;;
17345;SDS011;8790;53.590;10.002;2024-03-17T05:22:31;12.17;;;2.80;;
17345;SDS011;8790;53.590;10.002;2024-03-17T05:25:05;10.07;;;2.67;;
17345;SDS011;8790;53.590;10.002;2024-03-17T05:27:37;7.63;;;2.53;;
17345;SDS011;8790;53.590;10.002;2024-03-17T05:30:09;10.87;;;2.63;;
17345;SDS011;8790;53.590;10.002;2024-03-17T05:32:41;9.83;;;2.97;;
17345;SDS011;8790;53.590;10.002;2024-03-17T05:35:13;9.20;;;2.63;;
17345;SDS011;8790;53.590;10.002;2024-03-17T05:37:44;8.17;;;2.63;;
17345;SDS011;8790;53.590;10.002;2024-03-17T05:40:17;9.90;;;2.70;;
17345;SDS011;8790;53.590;10.002;2024-03-17T05:42:48;14.10;;;2.60;;
17345;SDS011;8790;53.590;10.002;2024-03-17T05:45:20;9.77;;;3.10;;
17345;SDS011;8790;53.590;10.002;2024-03-17T05:47:51;9.03;;;2.90;;
17345;SDS011;8790;53.590;10.002;2024-03-17T05:50:23;7.73;;;2.53;;
17345;SDS011;8790;53.590;10.002;2024-03-17T05:52:54;5.97;;;2.70;;
17345;SDS011;8790;53.590;10.002;2024-03-17T05:55:27;10.70;;;2.73;;
17345;SDS011;8790;53.590;10.002;2024-03-17T05:57:58;11.67;;;2.90;;
17345;SDS011;8790;53.590;10.002;2024-03-17T06:00:30;10.67;;;2.80;;
17345;SDS011;8790;53.590;10.002;2024-03-17T06:03:01;8.97;;;3.10;;
17345;SDS011;8790;53.590;10.002;2024-03-17T06:05:32;17.03;;;2.93;;
17345;SDS011;8790;53.590;10.002;2024-03-17T06:08:04;11.57;;;2.70;;
17345;SDS011;8790;53.590;10.002;2024-03-17T06:10:42;7.97;;;2.90;;
17345;SDS011;8790;53.590;10.002;2024-03-17T06:13:14;9.53;;;3.30;;
17345;SDS011;8790;53.590;10.002;2024-03-17T06:15:47;9.57;;;2.53;;
17345;SDS011;8790;53.590;10.002;2024-03-17T06:18:18;12.73;;;3.17;;
17345;SDS011;8790;53.590;10.002;2024-03-17T06:20:50;9.20;;;2.87;;
17345;SDS011;8790;53.590;10.002;2024-03-17T06:23:21;7.40;;;3.17;;
17345;SDS011;8790;53.590;10.002;2024-03-17T06:25:54;11.23;;;3.23;;
17345;SDS011;8790;53.590;10.002;2024-03-17T06:28:26;10.87;;;3.03;;
17345;SDS011;8790;53.590;10.002;2024-03-17T06:30:58;8.70;;;2.70;;
17345;SDS011;8790;53.590;10.002;2024-03-17T06:33:31;6.97;;;2.93;;
17345;SDS011;8790;53.590;10.002;2024-03-17T06:36:03;6.43;;;3.30;;
17345;SDS011;8790;53.590;10.002;2024-03-17T06:38:35;10.50;;;2.73;;
17345;SDS011;8790;53.590;10.002;2024-03-17T06:41:09;9.23;;;3.10;;
17345;SDS011;8790;53.590;10.002;2024-03-17T06:43:40;10.83;;;3.10;;
17345;SDS011;8790;53.590;10.002;2024-03-17T06:46:13;9.90;;;2.87;;
17345;SDS011;8790;53.590;10.002;2024-03-17T06:48:44;9.73;;;3.07;;
17345;SDS011;8790;53.590;10.002;2024-03-17T06:51:16;9.57;;;3.00;;
17345;SDS011;8790;53.590;10.002;2024-03-17T06:53:47;7.97;;;2.90;;
17345;SDS011;8790;53.590;10.002;2024-03-17T06:56:20;7.13;;;2.53;;
17345;SDS011;8790;53.590;10.002;2024-03-17T06:58:52;8.53;;;2.77;;
17345;SDS011;8790;53.590;10.002;2024-03-17T07:01:23;7.57;;;2.37;;
17345;SDS011;8790;53.590;10.002;2024-03-17T07:03:55;6.87;;;2.63;;
17345;SDS011;8790;53.590;10.002;2024-03-17T07:06:26;8.97;;;2.57;;
17345;SDS011;8790;53.590;10.002;2024-03-17T07:08:58;11.60;;;2.50;;
17345;SDS011;8790;53.590;10.002;2024-03-17T07:11:30;9.27;;;2.50;;
17345;SDS011;8790;53.590;10.002;2024-03-17T07:14:02;8.83;;;2.53;;
17345;SDS011;8790;53.590;10.002;2024-03-17T07:16:34;13.70;;;2.10;;
17345;SDS011;8790;53.590;10.002;2024-03-17T07:19:06;5.50;;;1.77;;
17345;SDS011;8790;53.590;10.002;2024-03-17T07:21:37;9.67;;;2.37;;
17345;SDS011;8790;53.590;10.002;2024-03-17T07:24:09;7.43;;;2.10;;
17345;SDS011;8790;53.590;10.002;2024-03-17T07:26:42;7.37;;;2.37;;
17345;SDS011;8790;53.590;10.002;2024-03-17T07:29:13;9.10;;;2.30;;
17345;SDS011;8790;53.590;10.002;2024-03-17T07:31:44;6.53;;;2.13;;
17345;SDS011;8790;53.590;10.002;2024-03-17T07:34:16;4.20;;;1.90;;
17345;SDS011;8790;53.590;10.002;2024-03-17T07:36:47;6.10;;;1.70;;
17345;SDS011;8790;53.590;10.002;2024-03-17T07:39:19;6.20;;;1.40;;
17345;SDS011;8790;53.590;10.002;2024-03-17T07:41:52;5.37;;;1.20;;
17345;SDS011;8790;53.590;10.002;2024-03-17T07:44:23;15.03;;;1.87;;
17345;SDS011;8790;53.590;10.002;2024-03-17T07:46:55;5.67;;;1.70;;
17345;SDS011;8790;53.590;10.002;2024-03-17T07:49:26;7.27;;;1.80;;
17345;SDS011;8790;53.590;10.002;2024-03-17T07:51:58;6.40;;;1.60;;
17345;SDS011;8790;53.590;10.002;2024-03-17T07:54:30;7.27;;;1.73;;
17345;SDS011;8790;53.590;10.002;2024-03-17T07:57:03;6.83;;;1.70;;
17345;SDS011;8790;53.590;10.002;2024-03-17T07:59:34;6.50;;;1.53;;
17345;SDS011;8790;53.590;10.002;2024-03-17T08:02:06;4.70;;;1.27;;
17345;SDS011;8790;53.590;10.002;2024-03-17T08:04:38;7.67;;;1.50;;
17345;SDS011;8790;53.590;10.002;2024-03-17T08:07:09;6.30;;;1.37;;
17345;SDS011;8790;53.590;10.002;2024-03-17T08:09:41;8.17;;;1.50;;
17345;SDS011;8790;53.590;10.002;2024-03-17T08:12:13;4.57;;;1.60;;
17345;SDS011;8790;53.590;10.002;2024-03-17T08:14:45;6.10;;;1.20;;
17345;SDS011;8790;53.590;10.002;2024-03-17T08:17:16;5.70;;;1.40;;
17345;SDS011;8790;53.590;10.002;2024-03-17T08:19:48;4.33;;;1.20;;
17345;SDS011;8790;53.590;10.002;2024-03-17T08:22:19;4.53;;;1.20;;
17345;SDS011;8790;53.590;10.002;2024-03-17T08:24:51;3.83;;;1.13;;
17345;SDS011;8790;53.590;10.002;2024-03-17T08:27:24;5.00;;;0.90;;
17345;SDS011;8790;53.590;10.002;2024-03-17T08:29:56;3.63;;;1.03;;
17345;SDS011;8790;53.590;10.002;2024-03-17T08:32:27;4.37;;;1.23;;
17345;SDS011;8790;53.590;10.002;2024-03-17T08:34:59;6.33;;;1.20;;
17345;SDS011;8790;53.590;10.002;2024-03-17T08:37:31;10.60;;;1.37;;
17345;SDS011;8790;53.590;10.002;2024-03-17T08:40:03;5.70;;;1.20;;
17345;SDS011;8790;53.590;10.002;2024-03-17T08:42:37;5.40;;;1.10;;
17345;SDS011;8790;53.590;10.002;2024-03-17T08:45:09;3.57;;;1.23;;
17345;SDS011;8790;53.590;10.002;2024-03-17T08:47:41;4.33;;;0.90;;
17345;SDS011;8790;53.590;10.002;2024-03-17T08:50:12;5.00;;;1.20;;
17345;SDS011;8790;53.590;10.002;2024-03-17T08:52:44;5.83;;;1.33;;
17345;SDS011;8790;53.590;10.002;2024-03-17T08:55:16;4.43;;;1.13;;
17345;SDS011;8790;53.590;10.002;2024-03-17T08:57:49;5.97;;;1.20;;
17345;SDS011;8790;53.590;10.002;2024-03-17T09:00:21;6.10;;;1.83;;
17345;SDS011;8790;53.590;10.002;2024-03-17T09:02:52;4.43;;;1.10;;
17345;SDS011;8790;53.590;10.002;2024-03-17T09:05:24;3.87;;;1.13;;
17345;SDS011;8790;53.590;10.002;2024-03-17T09:07:55;3.97;;;1.33;;
17345;SDS011;8790;53.590;10.002;2024-03-17T09:10:27;6.90;;;1.40;;
17345;SDS011;8790;53.590;10.002;2024-03-17T09:12:59;5.47;;;1.17;;
17345;SDS011;8790;53.590;10.002;2024-03-17T09:15:31;7.63;;;1.50;;
17345;SDS011;8790;53.590;10.002;2024-03-17T09:18:03;8.13;;;1.57;;
17345;SDS011;8790;53.590;10.002;2024-03-17T09:20:34;6.50;;;1.30;;
17345;SDS011;8790;53.590;10.002;2024-03-17T09:23:06;5.77;;;1.70;;
17345;SDS011;8790;53.590;10.002;2024-03-17T09:25:37;4.93;;;1.30;;
17345;SDS011;8790;53.590;10.002;2024-03-17T09:28:10;5.10;;;1.00;;
17345;SDS011;8790;53.590;10.002;2024-03-17T09:30:46;5.17;;;1.13;;
17345;SDS011;8790;53.590;10.002;2024-03-17T09:33:18;3.87;;;1.10;;
17345;SDS011;8790;53.590;10.002;2024-03-17T09:35:54;4.47;;;0.90;;
17345;SDS011;8790;53.590;10.002;2024-03-17T09:38:26;4.50;;;1.27;;
17345;SDS011;8790;53.590;10.002;2024-03-17T09:40:58;5.80;;;1.03;;
17345;SDS011;8790;53.590;10.002;2024-03-17T09:43:32;3.87;;;1.00;;
17345;SDS011;8790;53.590;10.002;2024-03-17T09:46:05;5.57;;;1.40;;
17345;SDS011;8790;53.590;10.002;2024-03-17T09:48:37;3.37;;;0.97;;
17345;SDS011;8790;53.590;10.002;2024-03-17T09:51:08;5.07;;;0.90;;
17345;SDS011;8790;53.590;10.002;2024-03-17T09:53:47;5.67;;;1.03;;
17345;SDS011;8790;53.590;10.002;2024-03-17T09:56:19;5.47;;;0.87;;
17345;SDS011;8790;53.590;10.002;2024-03-17T09:58:52;5.43;;;1.20;;
17345;SDS011;8790;53.590;10.002;2024-03-17T10:01:24;8.23;;;1.43;;
17345;SDS011;8790;53.590;10.002;2024-03-17T10:03:55;6.83;;;1.33;;
17345;SDS011;8790;53.590;10.002;2024-03-17T10:06:29;6.53;;;1.30;;
17345;SDS011;8790;53.590;10.002;2024-03-17T10:09:01;6.07;;;1.20;;
17345;SDS011;8790;53.590;10.002;2024-03-17T10:11:41;4.33;;;1.37;;
17345;SDS011;8790;53.590;10.002;2024-03-17T10:14:16;7.60;;;1.60;;
17345;SDS011;8790;53.590;10.002;2024-03-17T10:16:48;6.50;;;1.33;;
17345;SDS011;8790;53.590;10.002;2024-03-17T10:19:21;6.80;;;1.50;;
17345;SDS011;8790;53.590;10.002;2024-03-17T10:21:57;5.43;;;1.50;;
17345;SDS011;8790;53.590;10.002;2024-03-17T10:24:30;4.50;;;1.10;;
17345;SDS011;8790;53.590;10.002;2024-03-17T10:27:04;5.17;;;1.73;;
17345;SDS011;8790;53.590;10.002;2024-03-17T10:29:36;5.33;;;1.40;;
17345;SDS011;8790;53.590;10.002;2024-03-17T10:32:12;4.30;;;1.37;;
17345;SDS011;8790;53.590;10.002;2024-03-17T10:34:44;6.07;;;1.13;;
17345;SDS011;8790;53.590;10.002;2024-03-17T10:37:16;4.53;;;1.50;;
17345;SDS011;8790;53.590;10.002;2024-03-17T10:39:50;5.50;;;1.00;;
17345;SDS011;8790;53.590;10.002;2024-03-17T10:42:25;6.30;;;1.50;;
17345;SDS011;8790;53.590;10.002;2024-03-17T10:45:00;6.37;;;1.40;;
17345;SDS011;8790;53.590;10.002;2024-03-17T10:47:31;6.30;;;1.23;;
17345;SDS011;8790;53.590;10.002;2024-03-17T10:50:04;8.57;;;1.60;;
17345;SDS011;8790;53.590;10.002;2024-03-17T10:52:37;5.47;;;1.23;;
17345;SDS011;8790;53.590;10.002;2024-03-17T10:55:17;5.60;;;1.20;;
17345;SDS011;8790;53.590;10.002;2024-03-17T10:57:53;6.87;;;1.23;;
17345;SDS011;8790;53.590;10.002;2024-03-17T11:00:29;4.60;;;1.30;;
17345;SDS011;8790;53.590;10.002;2024-03-17T11:03:02;4.40;;;1.27;;
17345;SDS011;8790;53.590;10.002;2024-03-17T11:05:34;5.20;;;1.27;;
17345;SDS011;8790;53.590;10.002;2024-03-17T11:08:06;5.97;;;1.10;;
17345;SDS011;8790;53.590;10.002;2024-03-17T11:10:49;4.40;;;1.03;;
17345;SDS011;8790;53.590;10.002;2024-03-17T11:13:23;5.00;;;1.33;;
17345;SDS011;8790;53.590;10.002;2024-03-17T11:15:56;6.47;;;1.30;;
17345;SDS011;8790;53.590;10.002;2024-03-17T11:18:31;5.93;;;1.20;;
17345;SDS011;8790;53.590;10.002;2024-03-17T11:21:05;5.83;;;1.50;;
17345;SDS011;8790;53.590;10.002;2024-03-17T11:23:41;3.93;;;1.27;;
17345;SDS011;8790;53.590;10.002;2024-03-17T11:26:13;3.93;;;1.23;;
17345;SDS011;8790;53.590;10.002;2024-03-17T11:28:57;4.73;;;1.10;;
17345;SDS011;8790;53.590;10.002;2024-03-17T11:34:26;5.30;;;1.33;;
17345;SDS011;8790;53.590;10.002;2024-03-17T11:36:59;5.73;;;1.50;;
17345;SDS011;8790;53.590;10.002;2024-03-17T11:39:50;4.00;;;1.60;;
17345;SDS011;8790;53.590;10.002;2024-03-17T11:42:26;4.27;;;1.20;;
17345;SDS011;8790;53.590;10.002;2024-03-17T11:44:59;2.93;;;1.30;;
17345;SDS011;8790;53.590;10.002;2024-03-17T11:47:35;5.10;;;1.17;;
17345;SDS011;8790;53.590;10.002;2024-03-17T11:50:10;6.87;;;1.30;;
17345;SDS011;8790;53.590;10.002;2024-03-17T11:52:42;8.43;;;1.47;;
17345;SDS011;8790;53.590;10.002;2024-03-17T11:55:16;5.10;;;1.13;;
17345;SDS011;8790;53.590;10.002;2024-03-17T11:57:47;5.37;;;1.40;;
17345;SDS011;8790;53.590;10.002;2024-03-17T12:00:27;7.17;;;1.37;;
17345;SDS011;8790;53.590;10.002;2024-03-17T12:02:58;3.60;;;1.30;;
17345;SDS011;8790;53.590;10.002;2024-03-17T12:05:33;3.63;;;1.50;;
17345;SDS011;8790;53.590;10.002;2024-03-17T12:08:09;5.00;;;1.67;;
17345;SDS011;8790;53.590;10.002;2024-03-17T12:10:49;5.07;;;1.40;;
17345;SDS011;8790;53.590;10.002;2024-03-17T12:13:21;5.80;;;1.57;;
17345;SDS011;8790;53.590;10.002;2024-03-17T12:18:43;4.70;;;1.47;;
17345;SDS011;8790;53.590;10.002;2024-03-17T12:21:15;6.23;;;1.67;;
17345;SDS011;8790;53.590;10.002;2024-03-17T12:23:46;4.40;;;1.57;;
17345;SDS011;8790;53.590;10.002;2024-03-17T12:26:17;5.60;;;1.20;;
17345;SDS011;8790;53.590;10.002;2024-03-17T12:28:48;5.10;;;1.17;;
17345;SDS011;8790;53.590;10.002;2024-03-17T12:31:20;8.13;;;1.60;;
17345;SDS011;8790;53.590;10.002;2024-03-17T12:33:52;4.83;;;1.27;;
17345;SDS011;8790;53.590;10.002;2024-03-17T12:36:24;4.50;;;1.23;;
17345;SDS011;8790;53.590;10.002;2024-03-17T12:38:55;6.57;;;1.53;;
17345;SDS011;8790;53.590;10.002;2024-03-17T12:41:42;4.77;;;1.40;;
17345;SDS011;8790;53.590;10.002;2024-03-17T12:44:21;4.03;;;1.07;;
17345;SDS011;8790;53.590;10.002;2024-03-17T12:46:57;3.03;;;1.00;;
17345;SDS011;8790;53.590;10.002;2024-03-17T12:49:29;4.00;;;1.10;;
17345;SDS011;8790;53.590;10.002;2024-03-17T12:52:02;5.93;;;1.30;;
17345;SDS011;8790;53.590;10.002;2024-03-17T12:54:32;4.33;;;1.17;;
17345;SDS011;8790;53.590;10.002;2024-03-17T12:57:04;5.23;;;1.40;;
17345;SDS011;8790;53.590;10.002;2024-03-17T12:59:54;4.10;;;1.27;;
17345;SDS011;8790;53.590;10.002;2024-03-17T13:02:43;6.23;;;1.00;;
17345;SDS011;8790;53.590;10.002;2024-03-17T13:05:17;4.63;;;1.37;;
17345;SDS011;8790;53.590;10.002;2024-03-17T13:07:50;4.10;;;1.10;;
17345;SDS011;8790;53.590;10.002;2024-03-17T13:10:24;5.50;;;1.10;;
17345;SDS011;8790;53.590;10.002;2024-03-17T13:13:00;4.70;;;1.10;;
17345;SDS011;8790;53.590;10.002;2024-03-17T13:15:33;4.17;;;1.20;;
17345;SDS011;8790;53.590;10.002;2024-03-17T13:18:06;3.27;;;1.10;;
17345;SDS011;8790;53.590;10.002;2024-03-17T13:20:38;4.00;;;1.10;;
17345;SDS011;8790;53.590;10.002;2024-03-17T13:23:11;4.37;;;1.30;;
17345;SDS011;8790;53.590;10.002;2024-03-17T13:25:44;4.27;;;1.07;;
17345;SDS011;8790;53.590;10.002;2024-03-17T13:28:16;6.77;;;1.17;;
17345;SDS011;8790;53.590;10.002;2024-03-17T13:30:47;4.83;;;1.40;;
17345;SDS011;8790;53.590;10.002;2024-03-17T13:33:19;4.77;;;1.20;;
17345;SDS011;8790;53.590;10.002;2024-03-17T13:35:52;5.27;;;1.40;;
17345;SDS011;8790;53.590;10.002;2024-03-17T13:38:23;4.57;;;1.27;;
17345;SDS011;8790;53.590;10.002;2024-03-17T13:40:55;6.53;;;1.50;;
17345;SDS011;8790;53.590;10.002;2024-03-17T13:43:26;5.23;;;1.40;;
17345;SDS011;8790;53.590;10.002;2024-03-17T13:45:58;4.87;;;1.20;;
17345;SDS011;8790;53.590;10.002;2024-03-17T13:48:29;6.00;;;1.40;;
17345;SDS011;8790;53.590;10.002;2024-03-17T13:51:03;4.87;;;1.20;;
17345;SDS011;8790;53.590;10.002;2024-03-17T13:53:35;3.20;;;1.23;;
17345;SDS011;8790;53.590;10.002;2024-03-17T13:56:07;5.53;;;1.70;;
17345;SDS011;8790;53.590;10.002;2024-03-17T13:58:40;3.87;;;1.20;;
17345;SDS011;8790;53.590;10.002;2024-03-17T14:01:11;5.27;;;1.50;;
17345;SDS011;8790;53.590;10.002;2024-03-17T14:03:43;4.57;;;1.60;;
17345;SDS011;8790;53.590;10.002;2024-03-17T14:06:17;6.13;;;1.40;;
17345;SDS011;8790;53.590;10.002;2024-03-17T14:08:49;3.57;;;1.23;;
17345;SDS011;8790;53.590;10.002;2024-03-17T14:11:20;6.33;;;1.60;;
17345;SDS011;8790;53.590;10.002;2024-03-17T14:13:52;4.00;;;1.43;;
17345;SDS011;8790;53.590;10.002;2024-03-17T14:16:23;5.33;;;1.40;;
17345;SDS011;8790;53.590;10.002;2024-03-17T14:18:56;7.27;;;1.70;;
17345;SDS011;8790;53.590;10.002;2024-03-17T14:21:29;5.53;;;1.33;;
17345;SDS011;8790;53.590;10.002;2024-03-17T14:24:00;4.33;;;1.27;;
17345;SDS011;8790;53.590;10.002;2024-03-17T14:26:36;7.63;;;1.80;;
17345;SDS011;8790;53.590;10.002;2024-03-17T14:29:08;3.73;;;1.37;;
17345;SDS011;8790;53.590;10.002;2024-03-17T14:31:39;4.10;;;1.20;;
17345;SDS011;8790;53.590;10.002;2024-03-17T14:34:14;3.80;;;1.50;;
17345;SDS011;8790;53.590;10.002;2024-03-17T14:36:46;5.33;;;1.63;;
17345;SDS011;8790;53.590;10.002;2024-03-17T14:39:18;2.93;;;1.40;;
17345;SDS011;8790;53.590;10.002;2024-03-17T14:41:49;5.90;;;1.70;;
17345;SDS011;8790;53.590;10.002;2024-03-17T14:44:21;6.90;;;1.40;;
17345;SDS011;8790;53.590;10.002;2024-03-17T14:46:53;3.67;;;1.20;;
17345;SDS011;8790;53.590;10.002;2024-03-17T14:49:25;4.70;;;1.40;;
17345;SDS011;8790;53.590;10.002;2024-03-17T14:51:58;6.37;;;1.40;;
17345;SDS011;8790;53.590;10.002;2024-03-17T14:54:30;2.50;;;1.10;;
17345;SDS011;8790;53.590;10.002;2024-03-17T14:57:02;4.60;;;1.40;;
17345;SDS011;8790;53.590;10.002;2024-03-17T14:59:33;4.83;;;1.23;;
17345;SDS011;8790;53.590;10.002;2024-03-17T15:02:05;4.67;;;1.63;;
17345;SDS011;8790;53.590;10.002;2024-03-17T15:04:36;3.77;;;1.30;;
17345;SDS011;8790;53.590;10.002;2024-03-17T15:07:09;4.13;;;1.20;;
17345;SDS011;8790;53.590;10.002;2024-03-17T15:09:41;6.57;;;1.67;;
17345;SDS011;8790;53.590;10.002;2024-03-17T15:12:12;4.03;;;1.20;;
17345;SDS011;8790;53.590;10.002;2024-03-17T15:14:46;4.67;;;1.40;;
17345;SDS011;8790;53.590;10.002;2024-03-17T15:17:17;4.30;;;1.30;;
17345;SDS011;8790;53.590;10.002;2024-03-17T15:19:49;5.73;;;1.33;;
17345;SDS011;8790;53.590;10.002;2024-03-17T15:22:22;5.77;;;1.30;;